Time;durP1;ratioP1;P1;durP2;ratioP2;P2;SDS_P1;SDS_P2;PMS_P1;PMS_P2;Temp;Humidity;BMP_temperature;BMP_pressure;BME280_temperature;BME280_humidity;BME280_pressure;Samples;Min_cycle;Max_cycle;Signal;HPM_P1;HPM_P2
2022/09/23 00:02:20;;;;;;;5.30;3.65;;;14.00;61.70;;;;;;5029011;28;20029;-66
2022/09/23 00:04:46;;;;;;;6.03;4.03;;;13.90;61.70;;;;;;5042676;28;20036;-66
2022/09/23 00:07:12;;;;;;;5.15;3.72;;;13.90;61.80;;;;;;5050314;28;20030;-66
2022/09/23 00:09:37;;;;;;;4.90;3.75;;;13.90;61.90;;;;;;5048942;28;20027;-66
2022/09/23 00:12:04;;;;;;;4.20;3.60;;;13.90;61.90;;;;;;5048087;28;20108;-66
2022/09/23 00:14:30;;;;;;;4.47;3.92;;;13.90;62.00;;;;;;5048756;28;20380;-66
2022/09/23 00:16:56;;;;;;;4.45;3.72;;;13.80;62.00;;;;;;5031794;28;20036;-66
2022/09/23 00:19:21;;;;;;;5.95;4.30;;;13.80;62.20;;;;;;5030197;28;20028;-66
2022/09/23 00:21:47;;;;;;;4.82;3.67;;;13.70;62.30;;;;;;5031511;28;20030;-65
2022/09/23 00:24:14;;;;;;;5.63;3.60;;;13.70;62.40;;;;;;5031311;28;20084;-66
2022/09/23 00:26:40;;;;;;;5.35;4.07;;;13.70;62.50;;;;;;5044602;28;20391;-66
2022/09/23 00:29:06;;;;;;;4.95;3.97;;;13.60;62.60;;;;;;5050208;28;20029;-66
2022/09/23 00:31:32;;;;;;;4.75;3.80;;;13.60;62.80;;;;;;5033630;28;20116;-66
2022/09/23 00:34:00;;;;;;;5.40;3.97;;;13.60;62.80;;;;;;5031554;28;20029;-66
2022/09/23 00:36:27;;;;;;;4.72;3.65;;;13.60;63.00;;;;;;5042122;28;20029;-66
2022/09/23 00:38:53;;;;;;;4.60;3.67;;;13.60;62.90;;;;;;5051070;28;20026;-65
2022/09/23 00:41:20;;;;;;;4.57;3.83;;;13.60;63.00;;;;;;5039162;28;20584;-65
2022/09/23 00:43:47;;;;;;;5.50;4.05;;;13.60;63.00;;;;;;5032453;28;20527;-65
2022/09/23 00:46:35;;;;;;;5.53;4.00;;;13.50;63.10;;;;;;5040977;28;20075;-65
2022/09/23 00:49:09;;;;;;;5.72;3.95;;;13.50;63.20;;;;;;5045454;28;20029;-65
2022/09/23 00:51:43;;;;;;;4.05;3.42;;;13.60;63.30;;;;;;5048520;28;20033;-66
2022/09/23 00:54:10;;;;;;;5.30;3.80;;;13.50;63.20;;;;;;5042193;28;20032;-65
2022/09/23 00:56:37;;;;;;;4.78;3.50;;;13.50;63.90;;;;;;5048557;28;20395;-65
2022/09/23 00:59:04;;;;;;;5.13;3.67;;;13.50;63.30;;;;;;5048407;28;20029;-64
2022/09/23 01:01:30;;;;;;;4.28;3.50;;;13.50;63.40;;;;;;5048055;28;20025;-64
2022/09/23 01:03:57;;;;;;;3.90;3.20;;;13.50;63.40;;;;;;5048292;28;20025;-64
2022/09/23 01:06:23;;;;;;;4.70;3.35;;;13.50;63.50;;;;;;5043174;28;20104;-64
2022/09/23 01:08:49;;;;;;;4.35;3.50;;;13.50;63.60;;;;;;5048158;28;20033;-64
2022/09/23 01:11:25;;;;;;;4.80;3.70;;;13.50;64.20;;;;;;5030352;28;20021;-65
2022/09/23 01:14:00;;;;;;;4.60;3.78;;;13.50;63.70;;;;;;5046848;28;20029;-66
2022/09/23 01:16:35;;;;;;;5.03;3.70;;;13.50;63.60;;;;;;5045586;28;20025;-66
2022/09/23 01:19:42;;;;;;;4.63;3.58;;;13.40;63.60;;;;;;5051780;28;20048;-65
2022/09/23 01:22:46;;;;;;;4.25;3.65;;;13.40;63.70;;;;;;5052023;28;20433;-66
2022/09/23 01:26:03;;;;;;;5.07;3.60;;;13.40;64.00;;;;;;5033669;28;20033;-66
2022/09/23 01:28:34;;;;;;;4.90;3.83;;;13.30;64.10;;;;;;5034559;28;20584;-66
2022/09/23 01:31:42;;;;;;;5.38;3.90;;;13.30;64.20;;;;;;5031951;28;20033;-66
2022/09/23 01:34:23;;;;;;;5.18;3.67;;;13.30;64.30;;;;;;4984684;28;20064;-65
2022/09/23 01:37:04;;;;;;;4.30;3.42;;;13.30;64.50;;;;;;5044124;28;20091;-66
2022/09/23 01:39:57;;;;;;;5.70;4.10;;;13.20;64.50;;;;;;5038793;28;20111;-66
2022/09/23 01:42:26;;;;;;;;;;;13.20;64.60;;;;;;5032837;28;20045;-66
2022/09/23 01:44:58;;;;;;;6.57;3.75;;;13.20;64.60;;;;;;5042617;28;20371;-65
2022/09/23 01:47:31;;;;;;;4.53;3.70;;;13.10;64.80;;;;;;5034339;28;20112;-66
2022/09/23 01:50:02;;;;;;;6.00;3.97;;;13.10;64.90;;;;;;5043883;28;20087;-66
2022/09/23 01:52:39;;;;;;;6.35;3.92;;;13.10;65.00;;;;;;5048815;28;20029;-66
2022/09/23 01:55:09;;;;;;;4.82;3.67;;;13.10;65.10;;;;;;5035497;28;20500;-66
2022/09/23 01:57:41;;;;;;;4.97;4.03;;;13.10;65.20;;;;;;5033785;28;20387;-67
2022/09/23 02:00:14;;;;;;;6.18;3.58;;;13.00;65.30;;;;;;5031543;28;20083;-67
2022/09/23 02:03:12;;;;;;;5.47;4.03;;;13.00;65.40;;;;;;5046364;28;20542;-67
2022/09/23 02:05:47;;;;;;;3.80;3.35;;;13.00;65.50;;;;;;5038845;28;20021;-67
2022/09/23 02:08:19;;;;;;;4.95;3.35;;;12.90;65.50;;;;;;5032827;28;20034;-67
2022/09/23 02:11:12;;;;;;;4.22;3.45;;;12.90;65.70;;;;;;5037029;28;20029;-67
2022/09/23 02:14:14;;;;;;;4.60;3.60;;;12.90;65.80;;;;;;5050219;28;20060;-67
2022/09/23 02:16:49;;;;;;;4.63;3.92;;;12.80;65.90;;;;;;5042510;28;20037;-67
2022/09/23 02:19:42;;;;;;;5.30;4.07;;;12.80;66.10;;;;;;5052232;28;20472;-67
2022/09/23 02:22:14;;;;;;;5.00;3.70;;;12.70;66.20;;;;;;5048612;28;20211;-67
2022/09/23 02:24:39;;;;;;;4.30;3.60;;;12.70;66.30;;;;;;5050993;28;20017;-66
2022/09/23 02:27:24;;;;;;;5.88;4.00;;;12.60;66.30;;;;;;5042392;28;20032;-67
2022/09/23 02:30:10;;;;;;;4.82;3.63;;;12.60;66.60;;;;;;5052334;28;20082;-67
2022/09/23 02:32:47;;;;;;;5.65;3.58;;;12.60;66.60;;;;;;5050648;28;20030;-65
2022/09/23 02:35:33;;;;;;;4.93;3.90;;;12.60;66.60;;;;;;5039433;28;20033;-66
2022/09/23 02:38:32;;;;;;;5.90;4.35;;;12.60;66.70;;;;;;5042758;28;20033;-65
2022/09/23 02:41:09;;;;;;;5.63;4.05;;;12.60;66.80;;;;;;5051885;28;20025;-65
2022/09/23 02:43:53;;;;;;;5.22;4.18;;;12.60;66.80;;;;;;5050407;28;20056;-67
2022/09/23 02:46:20;;;;;;;4.75;3.63;;;12.60;66.80;;;;;;5032050;28;20091;-66
2022/09/23 02:48:50;;;;;;;6.30;3.88;;;12.60;67.00;;;;;;5031295;28;20021;-66
2022/09/23 02:51:15;;;;;;;4.60;3.60;;;12.50;67.00;;;;;;5031500;28;20040;-66
2022/09/23 02:53:42;;;;;;;4.55;3.85;;;12.50;67.00;;;;;;5040681;28;20658;-65
2022/09/23 02:56:16;;;;;;;4.57;3.95;;;12.50;67.00;;;;;;5052109;28;20029;-66
2022/09/23 02:58:42;;;;;;;5.53;3.85;;;12.50;67.20;;;;;;5044282;28;20036;-66
2022/09/23 03:01:33;;;;;;;5.18;4.00;;;12.50;67.20;;;;;;5032240;28;20053;-66
2022/09/23 03:04:24;;;;;;;5.68;4.30;;;12.50;67.40;;;;;;5030728;28;20108;-67
2022/09/23 03:07:31;;;;;;;5.93;4.37;;;12.50;67.40;;;;;;5034076;28;20508;-66
2022/09/23 03:10:20;;;;;;;5.97;4.30;;;12.50;67.50;;;;;;5040715;28;20036;-66
2022/09/23 03:12:59;;;;;;;4.95;4.03;;;12.50;67.50;;;;;;5044836;28;20048;-65
2022/09/23 03:15:42;;;;;;;6.25;3.75;;;12.50;67.60;;;;;;5051330;28;20017;-66
2022/09/23 03:18:30;;;;;;;5.00;3.60;;;12.50;67.60;;;;;;5049696;28;20117;-66
2022/09/23 03:21:02;;;;;;;5.30;3.92;;;12.40;67.60;;;;;;5029066;28;20635;-66
2022/09/23 03:23:34;;;;;;;3.70;3.30;;;12.40;67.80;;;;;;5037750;28;20049;-65
2022/09/23 03:26:06;;;;;;;4.82;3.90;;;12.40;67.80;;;;;;5031428;28;20025;-67
2022/09/23 03:28:35;;;;;;;4.60;3.72;;;12.30;68.00;;;;;;5032319;28;20029;-67
2022/09/23 03:31:02;;;;;;;6.03;3.72;;;12.30;68.10;;;;;;5037364;28;20029;-67
2022/09/23 03:33:29;;;;;;;4.88;3.70;;;12.40;68.20;;;;;;5037778;28;20104;-66
2022/09/23 03:38:52;;;;;;;5.65;3.70;;;12.30;68.30;;;;;;5031611;28;20569;-66
2022/09/23 03:41:28;;;;;;;5.40;4.00;;;12.30;68.30;;;;;;5039023;28;20051;-66
2022/09/23 03:43:58;;;;;;;5.38;4.43;;;12.30;68.40;;;;;;5031767;28;20104;-67
2022/09/23 03:46:28;;;;;;;5.78;4.22;;;12.20;68.50;;;;;;5047860;28;20028;-67
2022/09/23 03:49:13;;;;;;;6.43;4.57;;;12.20;68.70;;;;;;5045670;28;20104;-68
2022/09/23 03:51:39;;;;;;;5.90;4.40;;;12.20;69.00;;;;;;5031784;28;20059;-67
2022/09/23 03:54:04;;;;;;;6.15;4.65;;;12.10;69.00;;;;;;5030778;28;20073;-67
2022/09/23 03:56:30;;;;;;;5.30;4.05;;;12.10;69.20;;;;;;5032975;28;20025;-67
2022/09/23 03:58:56;;;;;;;5.65;4.35;;;12.10;69.20;;;;;;5035039;28;20650;-68
2022/09/23 04:01:22;;;;;;;5.47;4.38;;;12.10;69.80;;;;;;5050032;28;20515;-67
2022/09/23 04:03:47;;;;;;;4.88;4.30;;;12.10;69.30;;;;;;5035254;28;20028;-67
2022/09/23 04:06:14;;;;;;;6.38;4.43;;;12.10;69.50;;;;;;5029374;28;20388;-67
2022/09/23 04:08:40;;;;;;;6.50;4.78;;;12.00;69.60;;;;;;5038586;28;20040;-68
2022/09/23 04:11:05;;;;;;;7.82;5.22;;;12.00;69.80;;;;;;5050651;28;20053;-69
2022/09/23 04:13:31;;;;;;;8.57;6.00;;;12.00;69.80;;;;;;5048905;28;20029;-68
2022/09/23 04:15:57;;;;;;;7.38;5.25;;;12.00;70.00;;;;;;5048439;28;20026;-67
2022/09/23 04:18:23;;;;;;;9.07;6.38;;;11.90;69.90;;;;;;5031930;28;20151;-68
2022/09/23 04:20:49;;;;;;;9.27;6.18;;;11.90;70.00;;;;;;5038315;28;20033;-68
2022/09/23 04:23:14;;;;;;;9.48;6.50;;;11.90;70.20;;;;;;5048037;28;20487;-68
2022/09/23 04:25:47;;;;;;;8.85;5.68;;;11.90;70.30;;;;;;5030178;28;20468;-68
2022/09/23 04:28:13;;;;;;;9.20;6.28;;;11.90;70.40;;;;;;5031403;28;20041;-67
2022/09/23 04:30:42;;;;;;;9.13;6.13;;;11.90;70.40;;;;;;5038416;28;20051;-66
2022/09/23 04:33:09;;;;;;;7.78;5.50;;;11.90;70.40;;;;;;5030170;28;20068;-66
2022/09/23 04:35:37;;;;;;;7.97;5.50;;;11.90;70.40;;;;;;5031381;28;20091;-66
2022/09/23 04:38:03;;;;;;;9.35;5.57;;;11.90;70.40;;;;;;5029832;28;20106;-66
2022/09/23 04:40:29;;;;;;;7.38;4.75;;;11.90;70.40;;;;;;5036705;28;20021;-67
2022/09/23 04:42:55;;;;;;;7.72;5.10;;;11.90;70.30;;;;;;5049789;28;20479;-66
2022/09/23 04:45:20;;;;;;;8.00;5.70;;;12.00;71.00;;;;;;5041139;28;20112;-67
2022/09/23 04:47:46;;;;;;;7.60;5.40;;;11.90;70.50;;;;;;5030105;28;20061;-67
2022/09/23 04:50:11;;;;;;;8.07;5.45;;;12.00;70.50;;;;;;5033807;28;20025;-67
2022/09/23 04:52:37;;;;;;;8.30;4.88;;;12.00;70.50;;;;;;5037196;28;20021;-67
2022/09/23 04:55:02;;;;;;;6.85;5.10;;;12.00;70.40;;;;;;5048212;28;20052;-67
2022/09/23 04:57:28;;;;;;;7.78;4.70;;;12.00;70.30;;;;;;5053904;28;20029;-67
2022/09/23 04:59:55;;;;;;;6.40;4.97;;;12.10;70.30;;;;;;5050802;28;20086;-67
2022/09/23 05:02:21;;;;;;;7.10;5.20;;;12.00;70.30;;;;;;5041054;28;20018;-65
2022/09/23 05:04:47;;;;;;;6.13;4.75;;;12.00;70.40;;;;;;5039362;28;20020;-65
2022/09/23 05:07:12;;;;;;;6.93;4.70;;;12.00;70.50;;;;;;5047868;28;20028;-66
2022/09/23 05:09:38;;;;;;;5.55;4.45;;;12.10;70.60;;;;;;5037780;28;20032;-67
2022/09/23 05:12:04;;;;;;;5.53;4.32;;;12.10;71.10;;;;;;5034132;28;20021;-66
2022/09/23 05:14:29;;;;;;;5.93;4.47;;;12.10;70.30;;;;;;5034092;28;20391;-67
2022/09/23 05:16:55;;;;;;;4.93;4.20;;;12.10;70.30;;;;;;5036480;28;20284;-66
2022/09/23 05:19:20;;;;;;;6.80;4.13;;;12.10;70.20;;;;;;5035716;28;20582;-65
2022/09/23 05:21:46;;;;;;;5.82;4.43;;;12.10;70.20;;;;;;5038366;28;20500;-66
2022/09/23 05:24:11;;;;;;;6.45;4.93;;;12.10;70.30;;;;;;5046853;28;20033;-66
2022/09/23 05:26:37;;;;;;;7.30;4.43;;;12.10;70.40;;;;;;5036463;28;20053;-65
2022/09/23 05:29:03;;;;;;;6.88;4.70;;;12.10;70.50;;;;;;5045069;28;20021;-66
2022/09/23 05:31:29;;;;;;;6.75;4.50;;;12.10;70.40;;;;;;5040159;28;20113;-66
2022/09/23 05:33:58;;;;;;;6.68;4.70;;;12.10;70.50;;;;;;5044479;28;20030;-66
2022/09/23 05:36:25;;;;;;;5.72;4.38;;;12.10;70.50;;;;;;5033645;28;20026;-66
2022/09/23 05:38:51;;;;;;;7.30;4.65;;;12.10;70.50;;;;;;5045542;28;20079;-65
2022/09/23 05:41:19;;;;;;;5.68;4.35;;;12.10;70.30;;;;;;5045090;28;20029;-65
2022/09/23 05:43:44;;;;;;;5.05;4.07;;;12.10;70.40;;;;;;5045340;28;20025;-65
2022/09/23 05:46:16;;;;;;;5.97;4.53;;;12.20;70.40;;;;;;5045815;28;20116;-66
2022/09/23 05:48:44;;;;;;;5.40;4.38;;;12.20;70.90;;;;;;5052294;28;20167;-66
2022/09/23 05:51:23;;;;;;;5.25;3.97;;;12.20;70.20;;;;;;5036706;28;20029;-67
2022/09/23 05:53:51;;;;;;;7.00;4.60;;;12.20;70.30;;;;;;5035446;28;20098;-65
2022/09/23 05:56:19;;;;;;;5.32;4.18;;;12.30;70.30;;;;;;5045636;28;20029;-66
2022/09/23 05:58:47;;;;;;;6.55;4.50;;;12.30;70.30;;;;;;5050276;28;20487;-65
2022/09/23 06:01:24;;;;;;;5.75;4.70;;;12.30;70.10;;;;;;5038752;28;20400;-66
2022/09/23 06:03:51;;;;;;;5.70;4.22;;;12.40;70.20;;;;;;5043129;28;20032;-65
2022/09/23 06:06:19;;;;;;;5.05;4.10;;;12.40;70.20;;;;;;5041027;28;20076;-65
2022/09/23 06:08:46;;;;;;;6.18;4.72;;;12.50;70.20;;;;;;5038747;28;20048;-66
2022/09/23 06:11:12;;;;;;;5.85;4.95;;;12.50;70.20;;;;;;5051039;28;20675;-65
2022/09/23 06:13:38;;;;;;;7.45;4.07;;;12.50;70.20;;;;;;5043474;28;20385;-66
2022/09/23 06:16:13;;;;;;;5.07;4.10;;;12.40;70.10;;;;;;5047296;28;20083;-66
2022/09/23 06:18:43;;;;;;;6.78;4.18;;;12.50;70.10;;;;;;5043768;28;20041;-66
2022/09/23 06:21:15;;;;;;;5.60;4.53;;;12.50;70.20;;;;;;5049564;28;20021;-66
2022/09/23 06:23:42;;;;;;;7.63;4.55;;;12.50;70.20;;;;;;5040086;28;20414;-66
2022/09/23 06:26:10;;;;;;;6.63;5.05;;;12.40;70.30;;;;;;5038449;28;20017;-64
2022/09/23 06:28:37;;;;;;;6.32;4.80;;;12.40;70.50;;;;;;5039783;28;20087;-65
2022/09/23 06:31:07;;;;;;;6.03;4.38;;;12.40;70.70;;;;;;5038690;28;20530;-66
2022/09/23 06:33:33;;;;;;;6.22;4.40;;;12.40;70.70;;;;;;5036073;28;20116;-66
2022/09/23 06:36:01;;;;;;;5.35;4.47;;;12.40;70.60;;;;;;5039530;28;20029;-67
2022/09/23 06:38:27;;;;;;;6.13;4.40;;;12.50;70.60;;;;;;5037448;28;20098;-65
2022/09/23 06:40:54;;;;;;;7.00;4.78;;;12.50;70.60;;;;;;5040525;28;20028;-65
2022/09/23 06:43:22;;;;;;;7.53;5.35;;;12.50;70.60;;;;;;5037047;28;20056;-66
2022/09/23 06:45:52;;;;;;;5.32;4.40;;;12.60;70.60;;;;;;5040726;28;20537;-66
2022/09/23 06:48:18;;;;;;;6.50;4.95;;;12.60;70.60;;;;;;5040345;28;20381;-65
2022/09/23 06:50:43;;;;;;;6.32;4.60;;;12.60;70.50;;;;;;5037365;28;20087;-65
2022/09/23 06:53:09;;;;;;;5.68;4.70;;;12.60;70.50;;;;;;5037615;28;20051;-66
2022/09/23 06:55:35;;;;;;;5.75;4.10;;;12.60;70.40;;;;;;5043635;28;20160;-65
2022/09/23 06:58:01;;;;;;;6.70;4.78;;;12.70;70.40;;;;;;5040258;28;20033;-65
2022/09/23 07:00:28;;;;;;;6.03;4.50;;;12.70;70.40;;;;;;5039196;28;20018;-66
2022/09/23 07:02:53;;;;;;;7.57;5.28;;;12.80;70.40;;;;;;5040706;28;20025;-65
2022/09/23 07:05:21;;;;;;;7.40;5.72;;;12.70;70.30;;;;;;5040729;28;20376;-66
2022/09/23 07:07:47;;;;;;;6.65;4.05;;;12.80;70.40;;;;;;5041210;28;20018;-66
2022/09/23 07:10:13;;;;;;;7.20;4.65;;;12.80;70.30;;;;;;5041655;28;20024;-66
2022/09/23 07:12:39;;;;;;;5.90;4.38;;;12.90;70.20;;;;;;5037977;28;20029;-66
2022/09/23 07:15:05;;;;;;;6.05;3.95;;;12.90;70.90;;;;;;5039652;28;20109;-66
2022/09/23 07:17:31;;;;;;;5.45;3.97;;;12.90;70.20;;;;;;5041529;28;20063;-66
2022/09/23 07:19:57;;;;;;;7.82;4.90;;;13.00;70.10;;;;;;5049431;28;20052;-66
2022/09/23 07:22:24;;;;;;;6.03;4.40;;;13.00;70.10;;;;;;5043725;28;20025;-66
2022/09/23 07:24:50;;;;;;;6.68;5.22;;;13.00;70.00;;;;;;5039297;28;20450;-65
2022/09/23 07:27:18;;;;;;;7.32;5.35;;;13.00;69.90;;;;;;5041707;28;20025;-66
2022/09/23 07:29:46;;;;;;;6.18;5.05;;;13.10;70.00;;;;;;5039312;28;20024;-66
2022/09/23 07:32:12;;;;;;;6.65;5.03;;;13.10;70.10;;;;;;5038502;28;20029;-66
2022/09/23 07:34:38;;;;;;;5.43;4.57;;;13.10;70.00;;;;;;5044737;28;20033;-66
2022/09/23 07:37:04;;;;;;;5.82;4.70;;;13.10;69.80;;;;;;5041086;28;20037;-65
2022/09/23 07:39:29;;;;;;;7.30;5.63;;;13.20;69.70;;;;;;5041716;28;20546;-65
2022/09/23 07:41:55;;;;;;;5.55;4.70;;;13.20;69.60;;;;;;5042189;28;20021;-65
2022/09/23 07:44:21;;;;;;;7.00;5.30;;;13.20;69.50;;;;;;5040860;28;20025;-65
2022/09/23 07:46:48;;;;;;;8.32;5.28;;;13.30;69.40;;;;;;5040233;28;20207;-64
2022/09/23 07:49:14;;;;;;;7.07;5.20;;;13.30;69.20;;;;;;5039839;28;20538;-64
2022/09/23 07:51:44;;;;;;;6.78;4.60;;;13.30;69.10;;;;;;5037334;28;20028;-64
2022/09/23 07:54:12;;;;;;;7.45;5.05;;;13.40;69.00;;;;;;5038271;28;20025;-64
2022/09/23 07:56:38;;;;;;;6.65;4.85;;;13.40;68.80;;;;;;5040403;28;20032;-64
2022/09/23 07:59:07;;;;;;;6.63;5.07;;;13.50;68.70;;;;;;5041038;28;20025;-64
2022/09/23 08:01:36;;;;;;;5.25;4.38;;;13.50;68.70;;;;;;5039796;28;20125;-64
2022/09/23 08:04:09;;;;;;;6.78;4.65;;;13.70;68.60;;;;;;5037524;28;20022;-64
2022/09/23 08:06:38;;;;;;;6.40;5.20;;;13.80;68.30;;;;;;5043270;28;20453;-64
2022/09/23 08:09:04;;;;;;;6.97;5.35;;;13.90;68.10;;;;;;5043910;28;20479;-64
2022/09/23 08:11:30;;;;;;;6.13;4.90;;;13.90;68.00;;;;;;5037047;28;20021;-64
2022/09/23 08:13:56;;;;;;;7.30;5.53;;;14.00;67.90;;;;;;5040126;28;20407;-65
2022/09/23 08:16:22;;;;;;;7.95;5.28;;;14.10;67.70;;;;;;5041811;28;20029;-65
2022/09/23 08:18:47;;;;;;;8.07;6.03;;;14.10;67.50;;;;;;5039321;28;20549;-66
2022/09/23 08:21:19;;;;;;;6.80;5.03;;;14.20;67.50;;;;;;5039741;28;20052;-65
2022/09/23 08:23:45;;;;;;;9.48;5.78;;;14.30;67.40;;;;;;5040192;28;20013;-65
2022/09/23 08:26:11;;;;;;;6.20;5.20;;;14.40;67.20;;;;;;5041615;28;20651;-65
2022/09/23 08:28:37;;;;;;;7.03;5.28;;;14.50;67.00;;;;;;5039790;28;20036;-66
2022/09/23 08:31:03;;;;;;;7.07;5.50;;;14.60;66.90;;;;;;5040375;28;20021;-65
2022/09/23 08:33:28;;;;;;;7.18;5.20;;;14.60;66.40;;;;;;5039698;28;20087;-66
2022/09/23 08:35:59;;;;;;;6.05;4.47;;;14.60;66.40;;;;;;5038276;28;20025;-66
2022/09/23 08:38:25;;;;;;;8.65;5.00;;;14.70;66.30;;;;;;5038007;28;20067;-66
2022/09/23 08:40:54;;;;;;;6.40;5.50;;;14.80;66.30;;;;;;5036625;28;20041;-65
2022/09/23 08:43:24;;;;;;;6.97;5.15;;;14.80;66.00;;;;;;5037902;28;20051;-65
2022/09/23 08:45:52;;;;;;;7.75;5.32;;;14.90;65.90;;;;;;5038162;28;20422;-65
2022/09/23 08:48:28;;;;;;;8.65;5.63;;;14.80;65.60;;;;;;5037533;28;20100;-66
2022/09/23 08:51:00;;;;;;;7.22;5.50;;;14.90;65.80;;;;;;5046722;28;20032;-65
2022/09/23 08:53:37;;;;;;;6.93;5.63;;;14.90;65.90;;;;;;5042789;28;20427;-65
2022/09/23 08:56:08;;;;;;;8.10;6.43;;;14.90;65.80;;;;;;5039520;28;20092;-66
2022/09/23 08:58:49;;;;;;;8.07;5.00;;;14.90;65.50;;;;;;5034338;28;20075;-66
2022/09/23 09:01:23;;;;;;;7.85;5.32;;;14.90;65.60;;;;;;5039201;28;20401;-69
2022/09/23 09:03:53;;;;;;;9.35;5.55;;;15.10;65.50;;;;;;5042037;28;20052;-65
2022/09/23 09:06:36;;;;;;;7.35;4.75;;;15.10;65.40;;;;;;5036964;28;20017;-66
2022/09/23 09:09:03;;;;;;;7.10;4.43;;;15.20;65.30;;;;;;5035712;28;20033;-66
2022/09/23 09:11:38;;;;;;;6.47;5.22;;;15.30;65.20;;;;;;5032867;28;20022;-65
2022/09/23 09:14:21;;;;;;;9.80;5.70;;;15.40;65.00;;;;;;5042250;28;20070;-65
2022/09/23 09:16:55;;;;;;;8.90;5.20;;;15.40;64.90;;;;;;5039806;28;20029;-65
2022/09/23 09:19:39;;;;;;;5.93;4.80;;;15.50;64.90;;;;;;5052056;28;20037;-65
2022/09/23 09:22:18;;;;;;;6.25;4.30;;;15.60;64.80;;;;;;5038435;28;20552;-65
2022/09/23 09:24:47;;;;;;;5.38;4.28;;;15.70;64.70;;;;;;5043698;28;20029;-65
2022/09/23 09:27:13;;;;;;;7.05;5.03;;;15.90;64.50;;;;;;5044442;28;20025;-65
2022/09/23 09:29:45;;;;;;;7.40;5.40;;;16.00;64.30;;;;;;5045887;28;20534;-65
2022/09/23 09:32:32;;;;;;;6.72;4.53;;;16.10;64.10;;;;;;5044316;28;20024;-65
2022/09/23 09:35:04;;;;;;;8.98;5.65;;;16.20;64.10;;;;;;5042477;28;20087;-65
2022/09/23 09:37:45;;;;;;;8.30;5.25;;;16.30;63.90;;;;;;5047155;28;20522;-64
2022/09/23 09:40:12;;;;;;;6.97;5.10;;;16.40;63.60;;;;;;5048350;28;20028;-65
2022/09/23 09:42:45;;;;;;;5.13;4.00;;;16.40;63.30;;;;;;5051098;28;20032;-65
2022/09/23 09:45:20;;;;;;;6.85;5.13;;;16.60;63.20;;;;;;5050704;28;20055;-65
2022/09/23 09:48:13;;;;;;;7.97;5.95;;;16.70;62.70;;;;;;5049639;28;20063;-65
2022/09/23 09:50:53;;;;;;;6.70;6.00;;;16.60;62.20;;;;;;5049105;28;20033;-65
2022/09/23 09:53:24;;;;;;;6.53;4.40;;;16.50;62.10;;;;;;5048590;28;20111;-65
2022/09/23 09:56:11;;;;;;;6.35;4.57;;;16.60;62.20;;;;;;5049352;28;21696;-65
2022/09/23 09:58:49;;;;;;;6.63;4.70;;;16.70;62.30;;;;;;5046018;28;20120;-65
2022/09/23 10:01:30;;;;;;;5.97;4.45;;;16.70;62.10;;;;;;5050161;28;20049;-65
2022/09/23 10:03:59;;;;;;;5.55;4.40;;;16.80;62.00;;;;;;5050414;28;20480;-65
2022/09/23 10:06:28;;;;;;;5.60;4.63;;;16.80;62.00;;;;;;5047856;28;20440;-64
2022/09/23 10:09:15;;;;;;;5.75;4.72;;;16.90;61.90;;;;;;5048142;28;20044;-65
2022/09/23 10:12:00;;;;;;;7.10;4.43;;;16.90;61.80;;;;;;5039475;28;20010;-64
2022/09/23 10:14:28;;;;;;;8.32;4.90;;;17.00;62.00;;;;;;5049930;28;20029;-64
2022/09/23 10:17:04;;;;;;;9.00;5.05;;;17.00;61.80;;;;;;5051882;28;20025;-64
2022/09/23 10:19:30;;;;;;;7.25;4.70;;;17.10;61.80;;;;;;5050163;28;20053;-65
2022/09/23 10:21:59;;;;;;;7.32;4.60;;;17.20;61.60;;;;;;5045889;28;20033;-64
2022/09/23 10:24:30;;;;;;;5.40;3.92;;;17.30;61.30;;;;;;5054657;28;20029;-64
2022/09/23 10:27:03;;;;;;;6.78;4.47;;;17.40;61.00;;;;;;5048740;28;20079;-64
2022/09/23 10:29:32;;;;;;;5.55;3.60;;;17.40;60.80;;;;;;5044851;28;20027;-65
2022/09/23 10:32:17;;;;;;;5.32;3.83;;;17.60;60.90;;;;;;5047535;28;20028;-65
2022/09/23 10:34:45;;;;;;;6.72;3.78;;;17.80;60.60;;;;;;5049231;28;20029;-65
2022/09/23 10:37:17;;;;;;;4.90;3.88;;;17.80;60.40;;;;;;5048411;28;20446;-66
2022/09/23 10:49:12;;;;;;;5.78;4.00;;;18.00;59.50;;;;;;5047946;28;20530;-65
2022/09/23 10:52:01;;;;;;;6.57;4.85;;;18.20;59.60;;;;;;5047615;28;20523;-65
2022/09/23 10:54:35;;;;;;;3.63;2.85;;;18.30;59.20;;;;;;5048866;28;20412;-64
2022/09/23 11:00:17;;;;;;;6.68;5.07;;;18.50;58.70;;;;;;5047305;28;20052;-65
2022/09/23 11:02:58;;;;;;;6.18;4.70;;;18.50;58.00;;;;;;5046273;28;20107;-65
2022/09/23 11:05:46;;;;;;;6.90;3.80;;;18.40;57.80;;;;;;5046325;28;20581;-65
2022/09/23 11:08:31;;;;;;;6.22;3.58;;;18.50;57.70;;;;;;5046021;28;20083;-64
2022/09/23 11:11:17;;;;;;;6.35;4.20;;;18.60;57.60;;;;;;5045466;28;20025;-64
2022/09/23 11:13:56;;;;;;;6.00;3.88;;;18.60;57.70;;;;;;5043034;28;20025;-64
2022/09/23 11:16:36;;;;;;;6.82;5.03;;;18.60;57.50;;;;;;5047254;28;20259;-64
2022/09/23 11:19:13;;;;;;;6.35;4.80;;;18.50;56.30;;;;;;5044683;28;20373;-65
2022/09/23 11:22:07;;;;;;;5.25;3.65;;;18.40;56.30;;;;;;5048873;28;20450;-65
2022/09/23 11:25:01;;;;;;;6.82;3.90;;;18.30;56.90;;;;;;5047024;28;20031;-65
2022/09/23 11:27:41;;;;;;;5.35;3.40;;;18.30;57.10;;;;;;5045960;28;20681;-65
2022/09/23 11:30:16;;;;;;;5.20;3.33;;;18.40;57.40;;;;;;5050054;28;20104;-66
2022/09/23 11:33:02;;;;;;;6.15;3.78;;;18.40;57.40;;;;;;5049972;28;20108;-66
2022/09/23 11:35:55;;;;;;;4.32;3.30;;;18.50;57.60;;;;;;5045143;28;20094;-66
2022/09/23 11:38:43;;;;;;;3.97;3.03;;;18.50;57.70;;;;;;5043279;28;20036;-66
2022/09/23 11:41:30;;;;;;;5.13;4.05;;;18.60;57.80;;;;;;5046191;28;20036;-66
2022/09/23 11:44:07;;;;;;;4.57;3.22;;;18.60;57.60;;;;;;5042716;28;20429;-65
2022/09/23 11:46:50;;;;;;;4.65;3.08;;;18.60;57.70;;;;;;5049184;28;20029;-66
2022/09/23 11:49:29;;;;;;;5.40;4.20;;;18.70;57.60;;;;;;5047201;28;20032;-65
2022/09/23 11:52:07;;;;;;;5.55;3.90;;;18.70;57.10;;;;;;5045685;28;20152;-65
2022/09/23 11:54:51;;;;;;;5.85;4.47;;;18.70;56.90;;;;;;5037461;28;20033;-66
2022/09/23 11:57:53;;;;;;;5.05;3.85;;;18.60;56.50;;;;;;5044788;28;20534;-66
2022/09/23 12:00:25;;;;;;;5.45;4.22;;;18.60;56.80;;;;;;5048740;28;20037;-64
2022/09/23 12:03:33;;;;;;;4.80;4.05;;;18.60;56.70;;;;;;5035407;28;20049;-65
2022/09/23 12:06:08;;;;;;;5.78;4.10;;;18.60;56.70;;;;;;5039216;28;20039;-65
2022/09/23 12:08:38;;;;;;;5.00;4.03;;;18.60;56.60;;;;;;5046344;28;20060;-64
2022/09/23 12:11:12;;;;;;;5.57;3.30;;;18.60;56.60;;;;;;5043004;28;20906;-66
2022/09/23 12:13:48;;;;;;;8.32;4.25;;;18.70;56.70;;;;;;5044438;28;20039;-65
2022/09/23 12:16:35;;;;;;;5.38;3.72;;;18.70;56.50;;;;;;5041823;28;20182;-63
2022/09/23 12:19:23;;;;;;;5.28;3.63;;;18.70;56.50;;;;;;5046958;28;20079;-64
2022/09/23 12:22:03;;;;;;;4.78;3.70;;;18.80;56.40;;;;;;5040922;28;20056;-64
2022/09/23 12:24:46;;;;;;;7.28;3.63;;;18.80;56.40;;;;;;5038821;28;20029;-65
2022/09/23 12:27:21;;;;;;;;;;;18.80;56.40;;;;;;5042228;28;20032;-64
2022/09/23 12:29:58;;;;;;;6.63;5.30;;;18.80;56.10;;;;;;5042828;28;20621;-64
2022/09/23 12:32:25;;;;;;;8.13;4.30;;;18.90;55.70;;;;;;5047396;28;20033;-65
2022/09/23 12:34:53;;;;;;;5.57;4.40;;;18.90;55.70;;;;;;5041941;28;20035;-65
2022/09/23 12:37:28;;;;;;;5.15;3.58;;;19.00;55.80;;;;;;5044221;28;20020;-65
2022/09/23 12:40:00;;;;;;;4.95;3.70;;;19.10;55.70;;;;;;5040077;28;20045;-64
2022/09/23 12:42:26;;;;;;;5.13;3.83;;;19.20;55.50;;;;;;5042051;28;20048;-65
2022/09/23 12:45:11;;;;;;;7.57;4.53;;;19.40;55.00;;;;;;5044346;28;20025;-65
2022/09/23 12:47:38;;;;;;;7.05;4.72;;;19.40;54.60;;;;;;5041503;28;20025;-65
2022/09/23 12:50:42;;;;;;;8.18;4.72;;;19.40;54.60;;;;;;5043376;28;20511;-65
2022/09/23 12:53:32;;;;;;;7.70;4.80;;;19.40;54.50;;;;;;5045502;28;21118;-64
2022/09/23 12:56:37;;;;;;;7.13;4.53;;;19.40;53.80;;;;;;5043364;28;20073;-64
2022/09/23 12:59:15;;;;;;;6.32;4.32;;;19.30;53.50;;;;;;5024811;28;20037;-65
2022/09/23 13:01:41;;;;;;;5.88;3.88;;;19.40;53.80;;;;;;5018244;28;20025;-65
2022/09/23 13:07:24;;;;;;;6.00;4.20;;;19.50;53.90;;;;;;5047859;28;20060;-64
2022/09/23 13:10:01;;;;;;;8.45;4.80;;;19.50;53.90;;;;;;5046974;28;20033;-64
2022/09/23 13:12:31;;;;;;;8.57;5.93;;;19.50;53.70;;;;;;5046614;28;20087;-65
2022/09/23 13:15:02;;;;;;;6.15;4.78;;;19.50;53.20;;;;;;5053662;28;20075;-65
2022/09/23 13:17:38;;;;;;;6.15;4.50;;;19.50;53.60;;;;;;5047885;28;20036;-65
2022/09/23 13:20:19;;;;;;;8.57;5.97;;;19.50;53.70;;;;;;5058471;28;20036;-65
2022/09/23 13:22:48;;;;;;;6.30;4.32;;;19.40;53.40;;;;;;5051507;28;20095;-65
2022/09/23 13:25:20;;;;;;;6.10;3.70;;;19.50;53.80;;;;;;5050731;28;20487;-65
2022/09/23 13:27:56;;;;;;;6.63;4.60;;;19.60;54.00;;;;;;5047973;28;20721;-64
2022/09/23 13:30:24;;;;;;;6.78;4.68;;;19.60;53.70;;;;;;5040697;28;20507;-64
2022/09/23 13:33:04;;;;;;;8.52;4.15;;;19.60;53.70;;;;;;5044514;28;20025;-64
2022/09/23 13:35:36;;;;;;;7.28;4.05;;;19.60;53.70;;;;;;5049983;28;20391;-65
2022/09/23 13:38:19;;;;;;;7.32;4.57;;;19.60;53.80;;;;;;5045499;28;20040;-64